createdAt,value
2022-08-20T00:00:26.019Z,99338.84
2022-08-20T00:01:12.979Z,99337.75
2022-08-20T00:01:59.881Z,99342.16
2022-08-20T00:02:52.860Z,99346.03
2022-08-20T00:03:50.047Z,99350.41
2022-08-20T00:04:39.540Z,99355.06
2022-08-20T00:05:33.340Z,99355.34
2022-08-20T00:06:23.263Z,99365.28
2022-08-20T00:07:10.218Z,99366.91
2022-08-20T00:07:57.405Z,99371.84
2022-08-20T00:08:45.409Z,99372.97
2022-08-20T00:09:32.319Z,99380.94
2022-08-20T00:10:23.710Z,99384.50
2022-08-20T00:11:13.136Z,99388.38
2022-08-20T00:12:01.189Z,99383.13
2022-08-20T00:12:49.519Z,99389.75
2022-08-20T00:13:39.610Z,99378.19
2022-08-20T00:14:26.500Z,99385.91
2022-08-20T00:15:14.360Z,99378.47
2022-08-20T00:16:01.690Z,99368.00
2022-08-20T00:16:48.620Z,99366.91
2022-08-20T00:17:38.570Z,99356.19
2022-08-20T00:18:26.229Z,99356.19
2022-08-20T00:19:13.031Z,99349.03
2022-08-20T00:19:59.869Z,99357.03
2022-08-20T00:20:49.000Z,99343.53
2022-08-20T00:21:36.921Z,99348.22
2022-08-20T00:22:24.319Z,99350.97
2022-08-20T00:23:11.608Z,99349.31
2022-08-20T00:23:59.509Z,99341.62
2022-08-20T00:24:46.360Z,99343.25
2022-08-20T00:25:33.419Z,99342.16
2022-08-20T00:26:21.061Z,99336.66
2022-08-20T00:27:08.169Z,99342.16
2022-08-20T00:27:56.347Z,99331.16
2022-08-20T00:28:43.240Z,99329.50
2022-08-20T00:29:30.157Z,99321.53
2022-08-20T00:30:16.969Z,99325.09
2022-08-20T00:31:11.124Z,99321.25
2022-08-20T00:31:58.090Z,99325.66
2022-08-20T00:32:57.970Z,99328.13
2022-08-20T00:33:45.539Z,99327.28
2022-08-20T00:34:32.399Z,99330.59
2022-08-20T00:35:21.509Z,99329.22
2022-08-20T00:36:09.660Z,99328.38
2022-08-20T00:36:56.639Z,99337.19
2022-08-20T00:37:43.759Z,99329.78
2022-08-20T00:38:31.750Z,99328.13
2022-08-20T00:39:18.639Z,99323.44
2022-08-20T00:40:07.570Z,99317.13
2022-08-20T00:41:14.990Z,99311.88
2022-08-20T00:42:02.340Z,99309.97
2022-08-20T00:42:52.649Z,99301.44
2022-08-20T00:43:43.493Z,99295.38
2022-08-20T00:44:30.389Z,99290.19
2022-08-20T00:45:18.949Z,99289.88
2022-08-20T00:46:12.860Z,99281.62
2022-08-20T00:47:00.450Z,99279.16
2022-08-20T00:47:51.337Z,99279.16
2022-08-20T00:48:41.461Z,99272.03
2022-08-20T00:49:31.041Z,99270.06
2022-08-20T00:50:22.249Z,99272.53
2022-08-20T00:51:17.479Z,99266.53
2022-08-20T00:52:12.890Z,99263.22
2022-08-20T00:53:00.679Z,99264.59
2022-08-20T00:53:48.189Z,99261.84
2022-08-20T00:54:44.860Z,99263.75
2022-08-20T00:55:32.948Z,99266.50
2022-08-20T00:56:19.889Z,99275.06
2022-08-20T00:57:25.480Z,99281.66
2022-08-20T00:58:12.528Z,99293.44
2022-08-20T00:59:00.501Z,99302.81
2022-08-20T00:59:49.169Z,99303.88
2022-08-20T01:00:38.489Z,99303.34
2022-08-20T01:01:25.429Z,99304.16
2022-08-20T01:02:15.385Z,99302.50
2022-08-20T01:03:02.319Z,99292.63
2022-08-20T01:03:50.319Z,99265.41
2022-08-20T01:04:37.859Z,99254.41
2022-08-20T01:05:29.439Z,99239.03
2022-08-20T01:06:16.931Z,99232.72
2022-08-20T01:07:05.510Z,99230.50
2022-08-20T01:07:53.999Z,99233.50
2022-08-20T01:08:42.019Z,99240.09
2022-08-20T01:09:50.348Z,99242.31
2022-08-20T01:10:38.962Z,99242.59
2022-08-20T01:11:38.016Z,99248.91
2022-08-20T01:12:26.261Z,99254.97
2022-08-20T01:13:15.799Z,99248.09
2022-08-20T01:14:25.869Z,99249.47
2022-08-20T01:15:16.403Z,99242.31
2022-08-20T01:16:04.108Z,99247.25
2022-08-20T01:16:54.880Z,99242.81
2022-08-20T01:17:46.050Z,99239.50
2022-08-20T01:18:32.989Z,99231.00
2022-08-20T01:19:29.793Z,99245.87
2022-08-20T01:20:20.040Z,99236.22
2022-08-20T01:21:07.981Z,99235.91
2022-08-20T01:21:54.921Z,99236.19
2022-08-20T01:23:12.780Z,99233.41
2022-08-20T01:24:09.430Z,99230.91
2022-08-20T01:25:16.070Z,99232.84
2022-08-20T01:26:11.859Z,99236.41
2022-08-20T01:27:02.114Z,99232.28
2022-08-20T01:27:55.585Z,99237.78
2022-08-20T01:28:50.539Z,99234.47
2022-08-20T01:29:39.479Z,99239.97
2022-08-20T01:30:27.921Z,99244.91
2022-08-20T01:31:20.801Z,99255.56
2022-08-20T01:32:07.980Z,99255.03
2022-08-20T01:32:55.219Z,99260.25
2022-08-20T01:33:42.149Z,99256.66
2022-08-20T01:34:31.042Z,99270.66
2022-08-20T01:35:22.885Z,99266.00
2022-08-20T01:36:10.741Z,99262.69
2022-08-20T01:36:59.713Z,99267.06
2022-08-20T01:37:46.536Z,99263.22
2022-08-20T01:38:34.709Z,99271.16
2022-08-20T01:39:24.619Z,99263.75
2022-08-20T01:40:14.666Z,99268.94
2022-08-20T01:41:28.626Z,99261.81
2022-08-20T01:42:21.081Z,99265.69
2022-08-20T01:43:09.171Z,99265.38
2022-08-20T01:43:58.523Z,99265.69
2022-08-20T01:44:47.290Z,99261.28
2022-08-20T01:45:34.129Z,99267.31
2022-08-20T01:46:20.969Z,99270.06
2022-08-20T01:47:20.090Z,99267.31
2022-08-20T01:48:08.202Z,99266.69
2022-08-20T01:48:57.487Z,99265.06
2022-08-20T01:49:48.851Z,99260.94
2022-08-20T01:50:38.450Z,99257.38
2022-08-20T01:51:28.499Z,99254.91
2022-08-20T01:52:24.269Z,99257.34
2022-08-20T01:53:45.480Z,99257.34
2022-08-20T01:54:33.199Z,99267.97
2022-08-20T01:55:20.099Z,99265.19
2022-08-20T01:56:10.479Z,99264.34
2022-08-20T01:57:13.792Z,99265.75
2022-08-20T01:58:01.449Z,99260.28
2022-08-20T01:58:53.763Z,99263.53
2022-08-20T01:59:43.741Z,99261.34
2022-08-20T02:00:30.782Z,99271.81
2022-08-20T02:01:28.621Z,99275.31
2022-08-20T02:02:15.450Z,99270.13
2022-08-20T02:03:03.537Z,99280.53
2022-08-20T02:03:51.350Z,99291.75
2022-08-20T02:04:38.350Z,99286.00
2022-08-20T02:05:25.110Z,99279.97
2022-08-20T02:06:18.057Z,99290.94
2022-08-20T02:07:07.026Z,99289.00
2022-08-20T02:07:53.936Z,99289.00
2022-08-20T02:08:40.800Z,99291.72
2022-08-20T02:09:34.039Z,99288.12
2022-08-20T02:10:21.100Z,99282.09
2022-08-20T02:11:08.840Z,99288.38
2022-08-20T02:11:57.711Z,99280.44
2022-08-20T02:12:44.910Z,99277.41
2022-08-20T02:13:32.879Z,99281.28
2022-08-20T02:14:20.471Z,99269.50
2022-08-20T02:15:11.106Z,99284.59
2022-08-20T02:15:58.080Z,99279.34
2022-08-20T02:16:54.909Z,99269.22
2022-08-20T02:17:42.739Z,99274.16
2022-08-20T02:18:29.619Z,99284.56
2022-08-20T02:19:30.468Z,99285.13
2022-08-20T02:20:21.239Z,99285.13
2022-08-20T02:21:08.049Z,99287.00
2022-08-20T02:21:57.379Z,99288.94
2022-08-20T02:22:50.193Z,99295.53
2022-08-20T02:23:37.379Z,99295.00
2022-08-20T02:24:24.300Z,99291.72
2022-08-20T02:25:12.479Z,99296.66
2022-08-20T02:25:59.541Z,99302.97
2022-08-20T02:26:46.494Z,99299.13
2022-08-20T02:27:33.401Z,99301.56
2022-08-20T02:28:20.891Z,99300.47
2022-08-20T02:29:09.759Z,99307.34
2022-08-20T02:29:56.759Z,99311.69
2022-08-20T02:30:47.160Z,99314.44
2022-08-20T02:31:35.145Z,99315.53
2022-08-20T02:32:24.435Z,99321.59
2022-08-20T02:33:24.426Z,99317.50
2022-08-20T02:34:18.531Z,99318.06
2022-08-20T02:35:11.243Z,99316.69
2022-08-20T02:35:58.180Z,99318.38
2022-08-20T02:36:46.272Z,99321.69
2022-08-20T02:37:33.300Z,99325.25
2022-08-20T02:38:20.119Z,99331.31
2022-08-20T02:39:09.000Z,99330.75
2022-08-20T02:39:55.937Z,99328.28
2022-08-20T02:40:44.439Z,99334.06
2022-08-20T02:41:31.309Z,99338.22
2022-08-20T02:42:18.280Z,99336.84
2022-08-20T02:43:05.598Z,99335.25
2022-08-20T02:43:52.419Z,99342.06
2022-08-20T02:44:39.929Z,99341.00
2022-08-20T02:45:27.670Z,99342.38
2022-08-20T02:46:15.819Z,99344.06
2022-08-20T02:47:02.819Z,99348.66
2022-08-20T02:47:52.658Z,99347.25
2022-08-20T02:48:40.599Z,99350.50
2022-08-20T02:49:27.829Z,99348.34
2022-08-20T02:50:17.819Z,99352.44
2022-08-20T02:51:06.629Z,99345.09
2022-08-20T02:51:53.520Z,99345.00
2022-08-20T02:52:41.209Z,99341.69
2022-08-20T02:53:41.902Z,99340.88
2022-08-20T02:54:29.448Z,99343.09
2022-08-20T02:55:23.076Z,99337.59
2022-08-20T02:56:14.049Z,99336.53
2022-08-20T02:57:01.728Z,99333.22
2022-08-20T02:57:48.617Z,99337.09
2022-08-20T02:58:39.070Z,99338.25
2022-08-20T02:59:25.921Z,99335.25
2022-08-20T03:00:18.871Z,99339.91
2022-08-20T03:01:07.672Z,99341.03
2022-08-20T03:01:59.206Z,99343.25
2022-08-20T03:02:48.380Z,99339.16
2022-08-20T03:03:35.163Z,99339.69
2022-08-20T03:04:22.029Z,99345.13
2022-08-20T03:05:13.389Z,99341.56
2022-08-20T03:06:01.351Z,99346.81
2022-08-20T03:06:48.149Z,99338.00
2022-08-20T03:07:45.600Z,99336.56
2022-08-20T03:08:32.420Z,99335.19
2022-08-20T03:09:19.230Z,99337.09
2022-08-20T03:10:06.540Z,99333.81
2022-08-20T03:10:53.529Z,99328.06
2022-08-20T03:11:40.389Z,99319.25
2022-08-20T03:12:27.240Z,99325.00
2022-08-20T03:13:15.519Z,99323.06
2022-08-20T03:14:02.388Z,99321.38
2022-08-20T03:14:49.319Z,99320.00
2022-08-20T03:15:36.121Z,99318.94
2022-08-20T03:16:22.970Z,99324.41
2022-08-20T03:17:09.789Z,99324.69
2022-08-20T03:17:57.045Z,99321.44
2022-08-20T03:18:46.649Z,99321.94
2022-08-20T03:19:33.812Z,99323.03
2022-08-20T03:20:23.772Z,99324.66
2022-08-20T03:21:14.750Z,99325.81
2022-08-20T03:22:02.419Z,99331.31
2022-08-20T03:22:51.959Z,99332.72
2022-08-20T03:23:40.451Z,99335.47
2022-08-20T03:24:27.370Z,99329.41
2022-08-20T03:25:14.269Z,99335.16
2022-08-20T03:26:01.362Z,99340.66
2022-08-20T03:26:48.180Z,99339.81
2022-08-20T03:27:36.471Z,99340.91
2022-08-20T03:28:23.760Z,99351.31
2022-08-20T03:29:10.909Z,99351.63
2022-08-20T03:29:57.711Z,99354.09
2022-08-20T03:30:44.819Z,99347.50
2022-08-20T03:31:31.792Z,99347.81
2022-08-20T03:32:18.731Z,99344.53
2022-08-20T03:33:05.782Z,99350.81
2022-08-20T03:33:53.722Z,99348.81
2022-08-20T03:34:40.661Z,99351.56
2022-08-20T03:35:29.740Z,99340.56
2022-08-20T03:36:19.207Z,99338.63
2022-08-20T03:37:10.220Z,99345.53
2022-08-20T03:37:57.569Z,99350.75
2022-08-20T03:38:44.570Z,99353.47
2022-08-20T03:39:31.418Z,99354.59
2022-08-20T03:40:32.799Z,99359.84
2022-08-20T03:41:19.810Z,99357.91
2022-08-20T03:42:07.240Z,99354.31
2022-08-20T03:42:54.289Z,99357.34
2022-08-20T03:43:41.959Z,99343.84
2022-08-20T03:44:28.860Z,99344.66
2022-08-20T03:45:20.259Z,99344.09
2022-08-20T03:46:22.288Z,99337.22
2022-08-20T03:47:10.171Z,99331.19
2022-08-20T03:47:58.195Z,99329.81
2022-08-20T03:48:45.300Z,99327.34
2022-08-20T03:49:32.401Z,99323.50
2022-08-20T03:50:24.629Z,99315.28
2022-08-20T03:51:11.429Z,99315.56
2022-08-20T03:51:58.683Z,99314.19
2022-08-20T03:52:45.470Z,99312.81
2022-08-20T03:53:32.259Z,99305.13
2022-08-20T03:54:19.180Z,99305.47
2022-08-20T03:55:07.770Z,99290.84
2022-08-20T03:55:55.769Z,99287.56
2022-08-20T03:56:44.950Z,99280.38
2022-08-20T03:57:31.839Z,99273.84
2022-08-20T03:58:19.621Z,99280.12
2022-08-20T03:59:06.519Z,99272.41
2022-08-20T03:59:54.843Z,99259.22
2022-08-20T04:00:50.482Z,99239.78
2022-08-20T04:01:46.359Z,99236.72
2022-08-20T04:02:34.540Z,99218.09
2022-08-20T04:03:42.289Z,99207.75
2022-08-20T04:04:29.100Z,99207.75
2022-08-20T04:05:16.039Z,99196.88
2022-08-20T04:06:03.908Z,99207.03
2022-08-20T04:06:50.720Z,99211.72
2022-08-20T04:07:38.079Z,99200.75
2022-08-20T04:08:29.739Z,99205.91
2022-08-20T04:09:16.759Z,99208.59
2022-08-20T04:10:06.902Z,99206.09
2022-08-20T04:10:57.710Z,99209.66
2022-08-20T04:11:44.740Z,99211.34
2022-08-20T04:12:31.620Z,99214.88
2022-08-20T04:13:20.999Z,99219.00
2022-08-20T04:14:11.541Z,99228.09
2022-08-20T04:15:02.797Z,99240.22
2022-08-20T04:15:53.641Z,99242.38
2022-08-20T04:16:44.029Z,99250.59
2022-08-20T04:17:33.672Z,99253.91
2022-08-20T04:18:23.229Z,99265.12
2022-08-20T04:19:10.070Z,99270.63
2022-08-20T04:19:56.820Z,99286.28
2022-08-20T04:20:44.010Z,99295.31
2022-08-20T04:21:35.318Z,99284.66
2022-08-20T04:22:22.720Z,99286.84
2022-08-20T04:23:10.101Z,99289.34
2022-08-20T04:23:56.920Z,99292.91
2022-08-20T04:24:43.979Z,99291.84
2022-08-20T04:25:35.906Z,99289.34
2022-08-20T04:26:23.341Z,99301.97
2022-08-20T04:27:11.119Z,99316.25
2022-08-20T04:27:59.259Z,99317.34
2022-08-20T04:28:46.102Z,99322.25
2022-08-20T04:29:35.370Z,99323.88
2022-08-20T04:30:23.482Z,99326.94
2022-08-20T04:31:13.039Z,99330.19
2022-08-20T04:32:02.785Z,99328.53
2022-08-20T04:32:53.439Z,99325.81
2022-08-20T04:33:43.241Z,99326.62
2022-08-20T04:34:30.220Z,99326.88
2022-08-20T04:35:20.221Z,99328.00
2022-08-20T04:36:07.750Z,99320.34
2022-08-20T04:36:54.679Z,99319.25
2022-08-20T04:37:42.340Z,99318.16
2022-08-20T04:38:50.009Z,99319.56
2022-08-20T04:39:37.457Z,99321.53
2022-08-20T04:40:42.879Z,99310.03
2022-08-20T04:41:29.782Z,99329.22
2022-08-20T04:42:16.553Z,99322.44
2022-08-20T04:43:05.390Z,99329.22
2022-08-20T04:43:54.373Z,99328.94
2022-08-20T04:44:41.489Z,99335.25
2022-08-20T04:45:28.409Z,99326.75
2022-08-20T04:46:15.629Z,99333.91
2022-08-20T04:47:02.450Z,99322.13
2022-08-20T04:47:50.297Z,99318.34
2022-08-20T04:48:39.420Z,99319.16
2022-08-20T04:49:28.039Z,99317.50
2022-08-20T04:50:15.080Z,99321.31
2022-08-20T04:51:03.838Z,99321.31
2022-08-20T04:51:51.130Z,99315.03
2022-08-20T04:52:38.160Z,99306.56
2022-08-20T04:53:27.291Z,99309.03
2022-08-20T04:54:14.704Z,99301.59
2022-08-20T04:55:02.251Z,99301.03
2022-08-20T04:55:50.360Z,99305.47
2022-08-20T04:56:40.189Z,99304.38
2022-08-20T04:57:26.999Z,99301.06
2022-08-20T04:58:21.703Z,99306.00
2022-08-20T04:59:09.221Z,99307.34
2022-08-20T04:59:59.373Z,99302.69
2022-08-20T05:00:49.465Z,99309.84
2022-08-20T05:01:36.405Z,99314.28
2022-08-20T05:02:23.320Z,99310.22
2022-08-20T05:03:10.180Z,99316.59
2022-08-20T05:03:58.019Z,99313.59
2022-08-20T05:04:45.468Z,99321.84
2022-08-20T05:05:32.361Z,99330.37
2022-08-20T05:06:19.981Z,99328.50
2022-08-20T05:07:06.799Z,99328.78
2022-08-20T05:07:53.890Z,99338.66
2022-08-20T05:08:40.820Z,99339.22
2022-08-20T05:09:27.700Z,99336.47
2022-08-20T05:10:16.701Z,99341.47
2022-08-20T05:11:32.633Z,99340.38
2022-08-20T05:12:10.560Z,99337.37
2022-08-20T05:12:57.630Z,99335.72
2022-08-20T05:13:44.519Z,99333.00
2022-08-20T05:14:31.500Z,99337.44
2022-08-20T05:15:18.399Z,99342.38
2022-08-20T05:16:06.723Z,99341.28
2022-08-20T05:16:56.969Z,99343.19
2022-08-20T05:17:44.652Z,99344.31
2022-08-20T05:18:35.311Z,99349.78
2022-08-20T05:19:22.530Z,99359.16
2022-08-20T05:20:13.369Z,99357.78
2022-08-20T05:21:06.050Z,99361.09
2022-08-20T05:21:53.911Z,99361.59
2022-08-20T05:22:40.810Z,99366.31
2022-08-20T05:23:27.640Z,99364.12
2022-08-20T05:24:14.785Z,99368.53
2022-08-20T05:25:02.129Z,99372.94
2022-08-20T05:25:52.692Z,99376.81
2022-08-20T05:26:40.248Z,99380.94
2022-08-20T05:27:27.319Z,99384.78
2022-08-20T05:28:20.139Z,99385.06
2022-08-20T05:29:07.682Z,99392.78
2022-08-20T05:29:56.200Z,99385.34
2022-08-20T05:30:45.569Z,99388.12
2022-08-20T05:31:35.099Z,99382.66
2022-08-20T05:32:22.670Z,99382.34
2022-08-20T05:33:10.359Z,99382.88
2022-08-20T05:33:58.084Z,99383.72
2022-08-20T05:34:44.831Z,99381.50
2022-08-20T05:35:34.971Z,99374.88
2022-08-20T05:36:21.853Z,99374.59
2022-08-20T05:37:10.347Z,99367.19
2022-08-20T05:37:58.829Z,99365.53
2022-08-20T05:38:49.668Z,99359.44
2022-08-20T05:39:37.605Z,99360.81
2022-08-20T05:40:25.144Z,99360.00
2022-08-20T05:41:12.020Z,99349.78
2022-08-20T05:42:15.250Z,99355.03
2022-08-20T05:43:04.781Z,99351.44
2022-08-20T05:43:51.667Z,99345.91
2022-08-20T05:44:38.860Z,99360.53
2022-08-20T05:45:25.685Z,99366.31
2022-08-20T05:46:13.474Z,99368.81
2022-08-20T05:47:00.330Z,99374.84
2022-08-20T05:47:56.402Z,99377.59
2022-08-20T05:48:43.529Z,99382.84
2022-08-20T05:49:30.940Z,99383.66
2022-08-20T05:50:23.252Z,99389.75
2022-08-20T05:51:15.017Z,99391.91
2022-08-20T05:52:02.071Z,99390.56
2022-08-20T05:52:48.809Z,99393.59
2022-08-20T05:53:35.681Z,99394.41
2022-08-20T05:54:24.133Z,99387.81
2022-08-20T05:55:15.749Z,99389.47
2022-08-20T05:56:02.741Z,99393.34
2022-08-20T05:56:50.430Z,99394.44
2022-08-20T05:57:37.374Z,99391.41
2022-08-20T05:58:27.101Z,99385.63
2022-08-20T05:59:14.357Z,99390.56
2022-08-20T06:00:02.950Z,99387.81
2022-08-20T06:00:50.646Z,99391.09
2022-08-20T06:01:39.460Z,99390.81
2022-08-20T06:02:45.339Z,99386.41
2022-08-20T06:03:51.000Z,99388.31
2022-08-20T06:04:38.220Z,99379.78
2022-08-20T06:05:25.960Z,99376.47
2022-08-20T06:06:18.027Z,99372.06
2022-08-20T06:07:20.130Z,99370.72
2022-08-20T06:08:09.289Z,99370.41
2022-08-20T06:08:56.081Z,99364.59
2022-08-20T06:09:44.516Z,99373.69
2022-08-20T06:10:31.501Z,99377.25
2022-08-20T06:11:19.120Z,99377.53
2022-08-20T06:12:09.011Z,99378.63
2022-08-20T06:12:55.910Z,99385.81
2022-08-20T06:13:42.808Z,99381.41
2022-08-20T06:14:29.761Z,99386.38
2022-08-20T06:15:16.757Z,99389.41
2022-08-20T06:16:06.836Z,99390.53
2022-08-20T06:16:58.045Z,99386.09
2022-08-20T06:17:46.179Z,99386.09
2022-08-20T06:18:45.139Z,99389.69
2022-08-20T06:19:33.191Z,99393.56
2022-08-20T06:20:20.237Z,99397.44
2022-08-20T06:21:07.347Z,99394.66
2022-08-20T06:21:56.619Z,99391.91
2022-08-20T06:22:43.700Z,99388.88
2022-08-20T06:23:57.971Z,99390.00
2022-08-20T06:24:37.450Z,99393.31
2022-08-20T06:25:24.351Z,99391.59
2022-08-20T06:26:11.530Z,99393.53
2022-08-20T06:27:03.381Z,99392.69
2022-08-20T06:27:50.380Z,99395.00
2022-08-20T06:28:37.226Z,99391.97
2022-08-20T06:29:24.120Z,99402.16
2022-08-20T06:30:13.753Z,99396.09
2022-08-20T06:31:00.625Z,99395.56
2022-08-20T06:31:47.510Z,99404.63
2022-08-20T06:32:34.300Z,99402.69
2022-08-20T06:33:21.151Z,99405.72
2022-08-20T06:34:07.870Z,99403.50
2022-08-20T06:34:54.711Z,99407.37
2022-08-20T06:35:44.490Z,99414.81
2022-08-20T06:36:31.440Z,99419.75
2022-08-20T06:37:27.410Z,99418.97
2022-08-20T06:38:18.429Z,99422.25
2022-08-20T06:39:05.180Z,99426.91
2022-08-20T06:39:52.768Z,99417.00
2022-08-20T06:40:40.899Z,99424.47
2022-08-20T06:41:36.200Z,99423.38
2022-08-20T06:42:24.100Z,99425.00
2022-08-20T06:43:12.172Z,99423.34
2022-08-20T06:44:00.681Z,99429.69
2022-08-20T06:44:50.195Z,99433.56
2022-08-20T06:45:39.129Z,99427.50
2022-08-20T06:46:25.949Z,99427.22
2022-08-20T06:47:15.170Z,99428.84
2022-08-20T06:48:07.320Z,99430.53
2022-08-20T06:48:54.202Z,99430.50
2022-08-20T06:49:41.059Z,99422.28
2022-08-20T06:50:33.639Z,99426.38
2022-08-20T06:51:20.520Z,99428.03
2022-08-20T06:52:07.269Z,99425.56
2022-08-20T06:52:59.453Z,99435.47
2022-08-20T06:53:46.530Z,99426.94
2022-08-20T06:54:34.549Z,99431.88
2022-08-20T06:55:22.353Z,99428.03
2022-08-20T06:56:09.226Z,99426.94
2022-08-20T06:56:56.070Z,99423.38
2022-08-20T06:57:43.679Z,99423.09
2022-08-20T06:58:37.207Z,99423.63
2022-08-20T06:59:25.434Z,99421.97
2022-08-20T07:00:18.310Z,99430.22
2022-08-20T07:01:10.284Z,99416.75
2022-08-20T07:01:57.740Z,99422.25
2022-08-20T07:02:44.570Z,99418.97
2022-08-20T07:03:31.419Z,99417.28
2022-08-20T07:04:18.309Z,99421.69
2022-08-20T07:05:05.589Z,99418.69
2022-08-20T07:05:52.695Z,99414.81
2022-08-20T07:06:39.512Z,99418.12
2022-08-20T07:07:26.329Z,99415.34
2022-08-20T07:08:18.800Z,99415.63
2022-08-20T07:09:05.480Z,99416.16
2022-08-20T07:09:59.840Z,99409.81
2022-08-20T07:10:46.649Z,99415.59
2022-08-20T07:11:36.067Z,99405.69
2022-08-20T07:12:22.913Z,99408.44
2022-08-20T07:13:12.250Z,99406.50
2022-08-20T07:13:59.605Z,99407.31
2022-08-20T07:14:46.620Z,99406.47
2022-08-20T07:15:33.870Z,99408.44
2022-08-20T07:16:20.692Z,99413.69
2022-08-20T07:17:09.678Z,99403.75
2022-08-20T07:18:01.979Z,99407.88
2022-08-20T07:18:48.809Z,99409.28
2022-08-20T07:19:36.850Z,99404.84
2022-08-20T07:20:24.149Z,99408.44
2022-08-20T07:21:12.339Z,99400.19
2022-08-20T07:21:59.510Z,99406.78
2022-08-20T07:22:46.647Z,99405.44
2022-08-20T07:23:33.579Z,99399.91
2022-08-20T07:24:20.473Z,99405.94
2022-08-20T07:25:10.821Z,99401.84
2022-08-20T07:25:57.669Z,99398.75
2022-08-20T07:26:44.521Z,99395.78
2022-08-20T07:27:31.780Z,99396.31
2022-08-20T07:28:21.267Z,99399.66
2022-08-20T07:29:08.080Z,99401.31
2022-08-20T07:30:15.225Z,99403.50
2022-08-20T07:31:20.920Z,99400.75
2022-08-20T07:32:26.591Z,99412.91
2022-08-20T07:33:16.151Z,99407.66
2022-08-20T07:34:05.600Z,99408.22
2022-08-20T07:34:53.970Z,99415.09
2022-08-20T07:35:42.110Z,99417.03
2022-08-20T07:36:29.563Z,99410.69
2022-08-20T07:37:16.460Z,99415.63
2022-08-20T07:38:03.280Z,99413.13
2022-08-20T07:38:51.126Z,99413.69
2022-08-20T07:39:37.970Z,99426.09
2022-08-20T07:40:29.219Z,99425.81
2022-08-20T07:41:16.259Z,99431.06
2022-08-20T07:42:07.389Z,99430.47
2022-08-20T07:42:58.769Z,99434.63
2022-08-20T07:43:46.332Z,99431.59
2022-08-20T07:44:33.210Z,99433.81
2022-08-20T07:45:20.871Z,99425.53
2022-08-20T07:46:09.161Z,99426.09
2022-08-20T07:46:58.366Z,99425.84
2022-08-20T07:47:46.550Z,99419.75
2022-08-20T07:48:34.131Z,99419.75
2022-08-20T07:49:21.309Z,99426.62
2022-08-20T07:50:10.320Z,99422.25
2022-08-20T07:50:59.084Z,99425.53
2022-08-20T07:51:46.009Z,99430.25
2022-08-20T07:52:35.475Z,99427.47
2022-08-20T07:53:22.694Z,99431.63
2022-08-20T07:54:09.558Z,99431.88
2022-08-20T07:54:56.359Z,99426.09
2022-08-20T07:55:57.164Z,99429.97
2022-08-20T07:56:46.222Z,99427.78
2022-08-20T07:57:39.336Z,99431.88
2022-08-20T07:58:27.646Z,99434.66
2022-08-20T07:59:20.878Z,99434.91
2022-08-20T08:00:09.990Z,99443.19
2022-08-20T08:00:57.034Z,99439.31
2022-08-20T08:01:45.766Z,99446.75
2022-08-20T08:02:32.719Z,99447.56
2022-08-20T08:03:19.882Z,99448.94
2022-08-20T08:04:26.599Z,99449.22
2022-08-20T08:05:13.880Z,99450.03
2022-08-20T08:06:01.129Z,99447.84
2022-08-20T08:06:48.179Z,99449.47
2022-08-20T08:07:35.787Z,99456.66
2022-08-20T08:08:28.429Z,99454.72
2022-08-20T08:09:15.499Z,99452.50
2022-08-20T08:10:04.810Z,99450.59
2022-08-20T08:10:56.528Z,99454.16
2022-08-20T08:11:50.473Z,99452.22
2022-08-20T08:12:41.180Z,99454.19
2022-08-20T08:13:35.869Z,99450.31
2022-08-20T08:14:27.246Z,99447.84
2022-08-20T08:15:17.699Z,99455.03
2022-08-20T08:16:06.982Z,99449.25
2022-08-20T08:16:57.626Z,99450.34
2022-08-20T08:17:46.932Z,99450.34
2022-08-20T08:18:42.528Z,99444.53
2022-08-20T08:19:38.120Z,99444.00
2022-08-20T08:20:25.352Z,99439.88
2022-08-20T08:21:13.297Z,99443.75
2022-08-20T08:22:00.380Z,99445.13
2022-08-20T08:22:47.588Z,99443.72
2022-08-20T08:23:35.390Z,99444.81
2022-08-20T08:24:26.538Z,99440.69
2022-08-20T08:25:17.219Z,99435.47
2022-08-20T08:26:04.365Z,99434.66
2022-08-20T08:26:52.778Z,99433.81
2022-08-20T08:27:40.631Z,99433.25
2022-08-20T08:28:30.749Z,99435.19
2022-08-20T08:29:17.932Z,99430.25
2022-08-20T08:30:07.789Z,99431.59
2022-08-20T08:30:54.791Z,99429.41
2022-08-20T08:31:42.883Z,99429.94
2022-08-20T08:32:32.061Z,99431.03
2022-08-20T08:33:33.190Z,99427.22
2022-08-20T08:34:20.371Z,99433.25
2022-08-20T08:35:09.068Z,99432.41
2022-08-20T08:35:57.058Z,99433.50
2022-08-20T08:36:44.827Z,99428.53
2022-08-20T08:37:32.411Z,99432.97
2022-08-20T08:38:19.269Z,99425.56
2022-08-20T08:39:06.270Z,99424.19
2022-08-20T08:39:53.313Z,99427.22
2022-08-20T08:40:40.700Z,99420.59
2022-08-20T08:41:34.582Z,99422.25
2022-08-20T08:42:43.365Z,99415.38
2022-08-20T08:43:31.788Z,99419.50
2022-08-20T08:44:23.581Z,99409.31
2022-08-20T08:45:13.461Z,99407.09
2022-08-20T08:46:05.960Z,99408.19
2022-08-20T08:47:12.669Z,99410.12
2022-08-20T08:47:59.610Z,99402.16
2022-08-20T08:48:49.208Z,99412.59
2022-08-20T08:49:37.972Z,99410.97
2022-08-20T08:50:53.529Z,99412.59
2022-08-20T08:51:49.326Z,99409.31
2022-08-20T08:52:40.469Z,99414.25
2022-08-20T08:53:33.522Z,99405.44
2022-08-20T08:54:24.479Z,99414.53
2022-08-20T08:55:16.210Z,99407.91
2022-08-20T08:56:04.972Z,99407.91
2022-08-20T08:56:53.091Z,99413.44
2022-08-20T08:57:41.551Z,99413.69
2022-08-20T08:58:28.602Z,99409.84
2022-08-20T08:59:15.701Z,99412.31
2022-08-20T09:00:10.447Z,99408.75
2022-08-20T09:01:02.120Z,99417.28
2022-08-20T09:01:58.239Z,99414.47
2022-08-20T09:03:01.877Z,99418.09
2022-08-20T09:03:51.957Z,99419.75
2022-08-20T09:04:40.539Z,99421.66
2022-08-20T09:05:38.490Z,99416.41
2022-08-20T09:06:26.690Z,99413.94
2022-08-20T09:07:16.537Z,99411.41
2022-08-20T09:08:04.502Z,99419.69
2022-08-20T09:09:27.178Z,99414.41
2022-08-20T09:10:14.441Z,99407.50
2022-08-20T09:11:05.292Z,99409.09
2022-08-20T09:11:55.313Z,99403.38
2022-08-20T09:12:47.115Z,99406.47
2022-08-20T09:13:35.293Z,99397.63
2022-08-20T09:14:25.149Z,99401.41
2022-08-20T09:15:12.732Z,99407.16
2022-08-20T09:15:59.982Z,99406.03
2022-08-20T09:16:52.685Z,99401.91
2022-08-20T09:17:40.040Z,99402.91
2022-08-20T09:18:26.938Z,99396.78
2022-08-20T09:19:13.871Z,99397.00
2022-08-20T09:20:00.922Z,99392.50
2022-08-20T09:20:47.739Z,99396.63
2022-08-20T09:21:34.802Z,99387.59
2022-08-20T09:22:23.509Z,99394.16
2022-08-20T09:23:10.350Z,99395.78
2022-08-20T09:23:57.328Z,99402.00
2022-08-20T09:24:44.953Z,99396.94
2022-08-20T09:25:32.140Z,99404.81
2022-08-20T09:26:19.060Z,99401.66
2022-08-20T09:27:06.106Z,99399.84
2022-08-20T09:27:53.050Z,99400.41
2022-08-20T09:28:39.976Z,99400.69
2022-08-20T09:29:26.834Z,99404.28
2022-08-20T09:30:15.060Z,99407.88
2022-08-20T09:31:02.530Z,99405.28
2022-08-20T09:31:49.290Z,99401.53
2022-08-20T09:32:36.731Z,99401.63
2022-08-20T09:33:23.770Z,99400.38
2022-08-20T09:34:10.619Z,99404.19
2022-08-20T09:34:59.156Z,99404.47
2022-08-20T09:35:46.913Z,99400.22
2022-08-20T09:36:33.740Z,99404.88
2022-08-20T09:37:20.609Z,99402.03
2022-08-20T09:38:08.150Z,99417.78
2022-08-20T09:38:55.041Z,99410.28
2022-08-20T09:39:42.086Z,99407.56
2022-08-20T09:40:29.023Z,99410.66
2022-08-20T09:41:15.961Z,99413.09
2022-08-20T09:42:15.871Z,99410.09